Time;durP1;ratioP1;P1;durP2;ratioP2;P2;SDS_P1;SDS_P2;PMS_P1;PMS_P2;Temp;Humidity;BMP_temperature;BMP_pressure;BME280_temperature;BME280_humidity;BME280_pressure;Samples;Min_cycle;Max_cycle;Signal;HPM_P1;HPM_P2
2022/11/10 00:00:21;;;;;;;13.38;3.85;;;9.10;99.90;;;;;;5065242;28;20058;-58
2022/11/10 00:02:47;;;;;;;9.82;2.60;;;;;;;;;;5067730;28;20076;-58
2022/11/10 00:05:14;;;;;;;11.50;3.28;;;;;;;;;;5062913;28;20518;-58
2022/11/10 00:07:40;;;;;;;10.35;2.83;;;;;;;;;;5042856;28;20045;-55
2022/11/10 00:10:07;;;;;;;12.52;2.97;;;;;;;;;;5066561;28;20689;-57
2022/11/10 00:12:34;;;;;;;14.18;3.53;;;;;;;;;;5062843;28;20043;-58
2022/11/10 00:17:45;;;;;;;14.68;3.30;;;;;;;;;;5052857;28;20041;-59
2022/11/10 00:20:11;;;;;;;12.27;2.60;;;;;;;;;;5067289;28;20044;-58
2022/11/10 00:22:38;;;;;;;14.63;3.15;;;;;;;;;;5061654;28;20029;-58
2022/11/10 00:25:05;;;;;;;10.57;3.97;;;9.30;99.90;;;;;;5056602;28;20081;-59
2022/11/10 00:27:31;;;;;;;10.73;2.97;;;;;;;;;;5061548;28;20406;-58
2022/11/10 00:29:57;;;;;;;14.68;3.63;;;;;;;;;;5061447;28;20047;-59
2022/11/10 00:32:23;;;;;;;12.70;3.15;;;9.30;99.90;;;;;;5061936;28;20040;-59
2022/11/10 00:34:49;;;;;;;19.20;3.97;;;;;;;;;;5063532;28;20055;-59
2022/11/10 00:37:15;;;;;;;12.68;3.28;;;9.40;99.90;;;;;;5067163;28;20517;-59
2022/11/10 00:39:41;;;;;;;12.73;4.43;;;;;;;;;;5065293;28;20041;-59
2022/11/10 00:42:07;;;;;;;8.45;3.40;;;9.30;99.90;;;;;;5063296;28;20033;-59
2022/11/10 00:44:33;;;;;;;11.35;2.58;;;9.50;99.90;;;;;;5063940;28;20082;-59
2022/11/10 00:46:59;;;;;;;10.07;3.00;;;;;;;;;;5047356;28;20161;-59
2022/11/10 00:49:26;;;;;;;12.55;3.15;;;;;;;;;;5041315;28;20041;-59
2022/11/10 00:51:52;;;;;;;13.38;3.05;;;;;;;;;;5073806;22;20045;-64
2022/11/10 00:54:18;;;;;;;13.60;3.53;;;9.30;99.90;;;;;;5026491;28;20093;-64
2022/11/10 00:56:44;;;;;;;13.50;3.30;;;9.80;99.90;;;;;;5031398;28;20123;-64
2022/11/10 00:59:09;;;;;;;13.05;3.40;;;9.20;99.90;;;;;;5030605;28;20294;-64
2022/11/10 01:01:35;;;;;;;17.67;3.90;;;9.00;99.90;;;;;;5030055;28;20033;-64
2022/11/10 01:04:01;;;;;;;16.77;3.95;;;9.90;99.90;;;;;;5033256;28;20029;-64
2022/11/10 01:06:26;;;;;;;9.38;3.30;;;9.10;99.90;;;;;;5030562;28;20065;-64
2022/11/10 01:08:53;;;;;;;11.55;3.17;;;;;;;;;;5030363;28;20116;-64
2022/11/10 01:11:22;;;;;;;13.35;3.22;;;9.00;99.90;;;;;;5031118;28;20124;-64
2022/11/10 01:13:52;;;;;;;14.30;3.90;;;9.30;99.90;;;;;;5014245;28;20069;-63
2022/11/10 01:16:26;;;;;;;14.45;3.90;;;9.10;99.90;;;;;;5035737;28;20059;-64
2022/11/10 01:18:56;;;;;;;10.32;3.80;;;9.40;99.90;;;;;;5029389;28;20033;-63
2022/11/10 01:21:23;;;;;;;10.77;3.70;;;9.00;99.90;;;;;;5030558;28;20041;-63
2022/11/10 01:23:49;;;;;;;15.00;3.63;;;9.10;99.90;;;;;;5013094;28;20124;-63
2022/11/10 01:26:15;;;;;;;17.75;4.20;;;9.00;99.90;;;;;;5030413;28;20402;-64
2022/11/10 01:28:41;;;;;;;14.13;3.65;;;9.10;99.90;;;;;;5030197;28;20108;-63
2022/11/10 01:31:08;;;;;;;12.10;3.35;;;;;;;;;;5044269;28;20114;-63
2022/11/10 01:33:34;;;;;;;13.15;3.40;;;9.10;99.90;;;;;;5042871;28;20044;-63
2022/11/10 01:36:01;;;;;;;16.65;4.10;;;;;;;;;;5033930;28;20489;-63
2022/11/10 01:38:31;;;;;;;18.90;4.68;;;;;;;;;;5012542;28;20116;-63
2022/11/10 01:40:58;;;;;;;13.05;3.55;;;9.20;99.90;;;;;;5030220;28;20030;-63
2022/11/10 01:43:24;;;;;;;12.60;3.53;;;9.10;99.90;;;;;;5036619;28;20184;-63
2022/11/10 01:45:53;;;;;;;13.23;3.47;;;9.10;99.90;;;;;;5015352;28;20103;-63
2022/11/10 01:48:29;;;;;;;12.95;3.10;;;9.20;99.90;;;;;;5036642;28;20034;-63
2022/11/10 01:50:58;;;;;;;13.13;3.33;;;9.80;99.90;;;;;;5022425;28;20079;-63
2022/11/10 01:53:27;;;;;;;13.32;3.35;;;;;;;;;;5043161;28;20119;-63
2022/11/10 01:55:54;;;;;;;8.68;3.25;;;9.30;99.90;;;;;;5030988;28;20626;-63
2022/11/10 01:58:23;;;;;;;11.50;3.25;;;;;;;;;;5029819;28;20656;-63
2022/11/10 02:00:49;;;;;;;15.55;3.15;;;9.20;99.90;;;;;;5012587;28;20049;-63
2022/11/10 02:03:40;;;;;;;10.82;3.47;;;9.10;99.90;;;;;;5013180;28;20038;-63
2022/11/10 02:06:06;;;;;;;14.68;3.58;;;9.00;99.90;;;;;;5010705;28;20037;-63
2022/11/10 02:08:33;;;;;;;17.90;3.72;;;;;;;;;;5012083;28;20049;-63
2022/11/10 02:10:58;;;;;;;17.63;4.45;;;9.30;99.90;;;;;;5029564;28;20056;-63
2022/11/10 02:13:24;;;;;;;15.07;3.95;;;8.90;99.90;;;;;;5036830;28;20025;-63
2022/11/10 02:15:50;;;;;;;12.63;3.53;;;8.90;99.90;;;;;;5029842;28;20040;-63
2022/11/10 02:18:16;;;;;;;14.70;3.40;;;9.60;99.90;;;;;;5029612;28;20494;-63
2022/11/10 02:20:45;;;;;;;10.77;3.20;;;8.90;99.90;;;;;;5012181;28;20055;-63
2022/11/10 02:23:12;;;;;;;10.82;3.45;;;;;;;;;;5030528;28;20044;-63
2022/11/10 02:25:38;;;;;;;15.80;4.25;;;9.00;99.90;;;;;;5039462;28;20064;-63
2022/11/10 02:28:04;;;;;;;12.77;4.05;;;;;;;;;;5030399;28;20068;-63
2022/11/10 02:30:30;;;;;;;14.23;3.50;;;9.00;99.90;;;;;;5011727;28;20471;-63
2022/11/10 02:32:55;;;;;;;12.63;3.60;;;9.00;99.90;;;;;;5029389;28;20041;-63
2022/11/10 02:35:21;;;;;;;14.25;4.00;;;8.80;99.90;;;;;;5028518;28;20041;-63
2022/11/10 02:37:47;;;;;;;15.52;4.50;;;8.90;99.90;;;;;;5034466;28;20044;-63
2022/11/10 02:40:13;;;;;;;21.15;4.90;;;9.40;99.90;;;;;;5006136;28;20072;-63
2022/11/10 02:42:38;;;;;;;17.27;4.57;;;9.10;99.90;;;;;;5029476;28;20214;-63
2022/11/10 02:45:04;;;;;;;14.80;3.72;;;9.00;99.90;;;;;;5034282;28;20033;-63
2022/11/10 02:47:30;;;;;;;17.58;3.75;;;9.10;99.90;;;;;;5029549;28;20043;-63
2022/11/10 02:49:55;;;;;;;11.63;3.95;;;9.20;99.90;;;;;;5043996;28;20033;-62
2022/11/10 02:52:21;;;;;;;12.68;3.45;;;9.20;99.90;;;;;;5030076;28;20089;-64
2022/11/10 02:54:46;;;;;;;16.40;4.50;;;9.20;99.90;;;;;;5040024;28;20033;-64
2022/11/10 02:57:12;;;;;;;20.42;4.10;;;9.20;99.90;;;;;;5034600;28;20040;-64
2022/11/10 02:59:38;;;;;;;12.45;3.60;;;9.40;99.90;;;;;;5035728;28;20115;-64
2022/11/10 03:02:03;;;;;;;17.38;3.45;;;9.90;99.90;;;;;;5037252;28;20485;-64
2022/11/10 03:04:29;;;;;;;14.75;3.80;;;10.00;99.90;;;;;;5041499;28;20481;-64
2022/11/10 03:06:54;;;;;;;15.13;4.07;;;9.90;99.90;;;;;;5029088;28;20038;-64
2022/11/10 03:09:20;;;;;;;15.20;4.38;;;9.40;99.90;;;;;;5036651;28;20079;-64
2022/11/10 03:11:45;;;;;;;17.20;4.65;;;9.50;99.90;;;;;;5033076;28;20045;-64
2022/11/10 03:14:11;;;;;;;16.25;4.47;;;10.20;99.90;;;;;;5031053;28;20033;-64
2022/11/10 03:16:37;;;;;;;19.63;4.35;;;9.50;99.90;;;;;;5029285;28;20495;-64
2022/11/10 03:19:02;;;;;;;14.63;4.85;;;10.20;99.90;;;;;;5011155;28;20040;-64
2022/11/10 03:21:28;;;;;;;20.35;4.80;;;9.60;99.90;;;;;;5029155;28;20112;-64
2022/11/10 03:23:53;;;;;;;13.93;4.35;;;9.70;99.90;;;;;;5029884;28;20399;-64
2022/11/10 03:26:19;;;;;;;16.17;3.78;;;9.30;99.90;;;;;;5033281;28;20057;-64
2022/11/10 03:28:45;;;;;;;16.50;4.65;;;;;;;;;;5032411;28;20045;-64
2022/11/10 03:31:11;;;;;;;18.63;5.15;;;9.70;99.90;;;;;;5032656;28;20041;-64
2022/11/10 03:33:36;;;;;;;16.00;4.30;;;9.70;99.90;;;;;;5034220;28;20090;-64
2022/11/10 03:36:02;;;;;;;15.82;5.03;;;9.80;99.90;;;;;;5032558;28;20427;-64
2022/11/10 03:38:27;;;;;;;19.95;4.35;;;9.50;99.90;;;;;;5032112;28;20130;-64
2022/11/10 03:40:53;;;;;;;16.80;4.05;;;9.70;99.90;;;;;;5026905;28;20034;-64
2022/11/10 03:43:19;;;;;;;25.00;5.45;;;9.80;99.90;;;;;;5030092;28;20448;-64
2022/11/10 03:45:44;;;;;;;18.67;5.25;;;10.30;99.90;;;;;;5040893;28;20398;-64
2022/11/10 03:48:10;;;;;;;18.50;4.28;;;9.50;99.90;;;;;;5032037;28;20042;-64
2022/11/10 03:50:36;;;;;;;14.93;4.40;;;9.80;99.90;;;;;;5040450;28;20491;-64
2022/11/10 03:53:01;;;;;;;13.65;4.90;;;9.80;99.90;;;;;;5032316;28;20033;-63
2022/11/10 03:55:27;;;;;;;16.45;4.40;;;9.80;99.90;;;;;;5032491;28;20081;-63
2022/11/10 03:57:52;;;;;;;16.65;4.00;;;9.80;99.90;;;;;;5014379;28;20053;-64
2022/11/10 04:00:18;;;;;;;15.63;4.38;;;9.80;99.90;;;;;;5032366;28;20120;-63
2022/11/10 04:02:44;;;;;;;15.70;4.80;;;9.40;99.90;;;;;;5032333;28;20112;-64
2022/11/10 04:10:45;;;;;;;15.65;4.03;;;;;;;;;;5031122;28;20069;-64
2022/11/10 04:15:56;;;;;;;20.15;5.00;;;10.00;99.90;;;;;;5024337;28;20736;-64
2022/11/10 04:18:24;;;;;;;12.95;4.03;;;10.00;99.90;;;;;;5031304;28;20127;-64
2022/11/10 04:20:54;;;;;;;16.92;4.53;;;;;;;;;;5032117;28;20107;-63
2022/11/10 04:23:29;;;;;;;15.27;4.43;;;9.60;99.90;;;;;;5033945;28;20044;-64
2022/11/10 04:28:40;;;;;;;20.55;4.63;;;;;;;;;;5019977;28;19921;-63
2022/11/10 04:31:06;;;;;;;16.05;5.95;;;9.60;99.90;;;;;;5025570;28;20056;-64
2022/11/10 04:33:32;;;;;;;20.88;5.85;;;10.10;99.90;;;;;;5035414;28;20087;-64
2022/11/10 04:35:57;;;;;;;20.50;4.70;;;9.60;99.90;;;;;;5031071;28;20033;-64
2022/11/10 04:38:23;;;;;;;18.40;4.13;;;10.10;99.90;;;;;;5031733;28;20109;-64
2022/11/10 04:40:48;;;;;;;17.10;3.97;;;10.30;99.90;;;;;;5031520;28;20525;-64
2022/11/10 04:43:14;;;;;;;17.67;4.38;;;10.00;99.90;;;;;;5031575;28;20083;-64
2022/11/10 04:45:40;;;;;;;20.95;4.88;;;10.70;99.90;;;;;;5013993;28;20048;-64
2022/11/10 04:48:06;;;;;;;19.10;4.88;;;;;;;;;;5031042;28;20120;-63
2022/11/10 04:50:31;;;;;;;11.45;3.63;;;9.40;99.90;;;;;;5031224;28;20037;-64
2022/11/10 04:52:57;;;;;;;13.48;3.85;;;10.10;99.90;;;;;;5026713;28;20133;-64
2022/11/10 04:55:23;;;;;;;17.00;4.35;;;10.50;99.90;;;;;;5017640;28;20091;-64
2022/11/10 04:57:49;;;;;;;16.08;4.85;;;10.10;99.90;;;;;;5014773;28;20045;-63
2022/11/10 05:00:15;;;;;;;23.55;4.68;;;;;;;;;;5032256;28;20391;-64
2022/11/10 05:02:40;;;;;;;16.95;4.05;;;10.00;99.90;;;;;;5032710;28;20034;-64
2022/11/10 05:05:06;;;;;;;14.27;4.43;;;10.40;99.90;;;;;;5035642;28;20039;-63
2022/11/10 05:07:32;;;;;;;12.75;4.30;;;10.50;99.90;;;;;;5030336;28;20030;-64
2022/11/10 05:09:57;;;;;;;17.00;4.90;;;10.10;99.90;;;;;;5033890;28;20071;-63
2022/11/10 05:12:23;;;;;;;23.10;4.88;;;10.00;99.90;;;;;;5031822;28;20635;-64
2022/11/10 05:14:49;;;;;;;17.63;4.55;;;9.90;99.90;;;;;;5033413;28;20040;-63
2022/11/10 05:17:14;;;;;;;19.63;5.60;;;10.40;99.90;;;;;;5032651;28;20037;-63
2022/11/10 05:19:40;;;;;;;16.15;4.85;;;9.90;99.90;;;;;;5032206;28;20474;-63
2022/11/10 05:22:06;;;;;;;14.00;3.90;;;10.50;99.90;;;;;;5018446;28;20031;-63
2022/11/10 05:24:32;;;;;;;18.38;4.72;;;9.70;99.90;;;;;;5030206;28;20037;-63
2022/11/10 05:26:58;;;;;;;20.70;5.65;;;10.30;99.90;;;;;;5029207;28;20029;-63
2022/11/10 05:29:24;;;;;;;17.77;4.40;;;10.40;99.90;;;;;;5030870;28;20445;-64
2022/11/10 05:31:49;;;;;;;17.83;4.57;;;9.60;99.90;;;;;;5030489;28;20099;-63
2022/11/10 05:34:15;;;;;;;22.48;5.38;;;10.00;99.90;;;;;;5030412;28;20041;-63
2022/11/10 05:36:41;;;;;;;16.33;4.70;;;10.60;99.90;;;;;;5030325;28;20041;-63
2022/11/10 05:39:08;;;;;;;21.08;5.00;;;;;;;;;;5013127;28;20044;-64
2022/11/10 05:41:34;;;;;;;21.05;4.90;;;;;;;;;;5022958;28;20053;-63
2022/11/10 05:44:00;;;;;;;20.25;5.57;;;;;;;;;;5025569;28;20038;-63
2022/11/10 05:46:25;;;;;;;25.30;4.93;;;10.30;99.90;;;;;;5024641;28;20079;-63
2022/11/10 05:48:51;;;;;;;19.90;4.22;;;10.50;99.90;;;;;;5028830;28;20074;-63
2022/11/10 05:51:16;;;;;;;24.83;4.30;;;10.10;99.90;;;;;;5013134;28;20038;-63
2022/11/10 05:53:42;;;;;;;15.38;4.10;;;10.00;99.90;;;;;;4998251;28;20037;-63
2022/11/10 05:56:08;;;;;;;17.77;4.45;;;;;;;;;;5013776;28;20384;-64
2022/11/10 05:58:34;;;;;;;21.10;4.57;;;10.40;99.90;;;;;;5017016;28;20465;-63
2022/11/10 06:00:59;;;;;;;26.33;5.65;;;10.10;99.90;;;;;;5013404;28;20260;-63
2022/11/10 06:03:25;;;;;;;19.65;4.75;;;10.10;99.90;;;;;;4992751;28;20482;-63
2022/11/10 06:05:52;;;;;;;32.42;4.97;;;9.50;99.90;;;;;;4999214;28;20106;-63
2022/11/10 06:08:17;;;;;;;20.05;5.40;;;10.00;99.90;;;;;;5007937;28;20077;-63
2022/11/10 06:10:43;;;;;;;20.85;5.35;;;10.10;99.90;;;;;;4997820;28;20414;-63
2022/11/10 06:13:09;;;;;;;23.30;4.82;;;9.70;99.90;;;;;;5015891;28;20030;-63
2022/11/10 06:15:35;;;;;;;26.38;5.50;;;;;;;;;;4993994;28;20391;-62
2022/11/10 06:18:01;;;;;;;20.80;5.35;;;10.00;99.90;;;;;;5012746;28;20038;-63
2022/11/10 06:20:27;;;;;;;27.83;6.47;;;;;;;;;;5014883;28;20083;-63
2022/11/10 06:23:03;;;;;;;20.25;5.20;;;;;;;;;;5026056;28;20495;-63
2022/11/10 06:25:31;;;;;;;21.67;5.28;;;10.10;99.90;;;;;;5033452;28;20191;-63
2022/11/10 06:27:57;;;;;;;23.80;4.70;;;;;;;;;;5029692;28;20037;-63
2022/11/10 06:30:24;;;;;;;20.90;6.13;;;;;;;;;;5040151;28;20036;-63
2022/11/10 06:32:50;;;;;;;16.35;5.05;;;10.10;99.90;;;;;;5033098;28;20045;-63
2022/11/10 06:35:16;;;;;;;22.05;4.88;;;9.90;99.90;;;;;;5029852;28;20049;-63
2022/11/10 06:37:42;;;;;;;23.30;4.88;;;9.70;99.90;;;;;;5011304;28;20041;-63
2022/11/10 06:40:10;;;;;;;21.67;4.90;;;10.50;99.90;;;;;;5017928;28;20048;-63
2022/11/10 06:42:36;;;;;;;25.17;7.13;;;10.40;99.90;;;;;;5045557;28;20496;-63
2022/11/10 06:45:02;;;;;;;26.50;5.47;;;;;;;;;;5023615;28;20064;-63
2022/11/10 06:47:28;;;;;;;24.83;5.50;;;9.60;99.90;;;;;;5012815;28;20037;-63
2022/11/10 06:49:54;;;;;;;19.23;4.57;;;;;;;;;;5014375;28;20044;-63
2022/11/10 06:52:20;;;;;;;22.30;4.68;;;;;;;;;;5112967;22;20418;-58
2022/11/10 06:54:46;;;;;;;20.40;5.80;;;10.30;99.90;;;;;;5048225;28;20036;-56
2022/11/10 06:57:12;;;;;;;22.88;5.00;;;10.30;99.90;;;;;;5049098;28;20112;-56
2022/11/10 06:59:38;;;;;;;23.92;5.78;;;10.30;99.90;;;;;;5052626;28;20520;-58
2022/11/10 07:02:04;;;;;;;24.33;5.00;;;;;;;;;;5059163;28;20064;-57
2022/11/10 07:04:30;;;;;;;32.60;7.63;;;;;;;;;;5049370;28;20745;-57
2022/11/10 07:06:57;;;;;;;19.75;5.25;;;;;;;;;;5051259;28;20048;-57
2022/11/10 07:09:23;;;;;;;22.13;5.82;;;;;;;;;;5053164;28;20041;-57
2022/11/10 07:11:48;;;;;;;24.73;6.18;;;10.40;99.90;;;;;;5058036;28;20092;-58
2022/11/10 07:14:14;;;;;;;18.38;5.30;;;;;;;;;;5051853;28;20107;-57
2022/11/10 07:16:40;;;;;;;22.63;6.40;;;;;;;;;;5049450;28;20044;-59
2022/11/10 07:19:06;;;;;;;24.58;5.35;;;;;;;;;;5050609;28;20049;-57
2022/11/10 07:21:32;;;;;;;19.40;4.90;;;10.30;99.90;;;;;;5050688;28;20039;-58
2022/11/10 07:23:57;;;;;;;21.63;5.63;;;10.30;99.90;;;;;;5050536;28;20112;-58
2022/11/10 07:26:23;;;;;;;25.33;4.93;;;;;;;;;;5050700;28;20060;-58
2022/11/10 07:28:49;;;;;;;19.75;6.30;;;10.20;99.90;;;;;;5035694;28;20135;-57
2022/11/10 07:31:15;;;;;;;22.42;5.38;;;10.20;99.90;;;;;;5052626;28;20116;-57
2022/11/10 07:33:42;;;;;;;21.40;6.43;;;;;;;;;;5051432;28;20029;-58
2022/11/10 07:36:08;;;;;;;21.35;4.97;;;;;;;;;;5038139;28;20052;-58
2022/11/10 07:38:34;;;;;;;19.15;4.90;;;;;;;;;;5060597;28;20119;-57
2022/11/10 07:41:00;;;;;;;23.83;5.63;;;10.30;99.90;;;;;;5057632;28;20116;-59
2022/11/10 07:43:26;;;;;;;19.58;4.70;;;10.30;99.90;;;;;;5052339;28;20494;-55
2022/11/10 07:45:52;;;;;;;26.27;6.18;;;10.50;99.90;;;;;;5052160;28;20068;-59
2022/11/10 07:48:18;;;;;;;27.50;8.43;;;10.50;99.90;;;;;;5044533;28;20047;-58
2022/11/10 07:50:45;;;;;;;18.90;6.07;;;10.60;99.90;;;;;;5060231;28;20131;-58
2022/11/10 07:53:13;;;;;;;26.27;5.60;;;11.00;99.90;;;;;;5062668;28;20055;-58
2022/11/10 07:55:40;;;;;;;20.65;5.25;;;;;;;;;;5053865;28;20087;-57
2022/11/10 07:58:06;;;;;;;19.63;5.35;;;;;;;;;;5055890;28;20130;-58
2022/11/10 08:00:33;;;;;;;28.15;5.43;;;10.90;99.90;;;;;;5061562;28;20037;-59
2022/11/10 08:03:03;;;;;;;21.88;5.30;;;10.80;99.90;;;;;;5051845;28;20505;-59
2022/11/10 08:05:30;;;;;;;20.05;4.47;;;10.90;99.90;;;;;;5048759;28;20052;-58
2022/11/10 08:07:56;;;;;;;32.35;5.65;;;11.00;99.90;;;;;;5051620;28;20067;-58
2022/11/10 08:10:21;;;;;;;20.70;4.55;;;11.10;99.90;;;;;;5051245;28;20557;-58
2022/11/10 08:12:53;;;;;;;23.88;4.82;;;;;;;;;;5051599;28;20415;-58
2022/11/10 08:15:19;;;;;;;18.95;4.85;;;;;;;;;;5051795;28;20551;-58
2022/11/10 08:17:45;;;;;;;19.63;5.53;;;11.10;99.90;;;;;;5051325;28;20120;-57
2022/11/10 08:20:11;;;;;;;23.45;5.07;;;;;;;;;;5051612;28;20036;-58
2022/11/10 08:22:37;;;;;;;16.60;5.07;;;10.80;99.90;;;;;;5051780;28;20029;-57
2022/11/10 08:25:03;;;;;;;14.35;5.30;;;;;;;;;;5051750;28;20496;-58
2022/11/10 08:27:28;;;;;;;21.83;5.25;;;11.00;99.90;;;;;;5051107;28;20376;-58
2022/11/10 08:29:54;;;;;;;18.73;4.30;;;11.20;99.90;;;;;;5051511;28;20180;-58
2022/11/10 08:32:20;;;;;;;20.00;4.80;;;11.10;99.90;;;;;;5051386;28;20048;-57
2022/11/10 08:34:45;;;;;;;19.95;4.60;;;11.20;99.90;;;;;;5051609;28;20091;-58
2022/11/10 08:37:11;;;;;;;22.38;5.20;;;11.10;99.90;;;;;;5051174;28;20132;-57
2022/11/10 08:39:37;;;;;;;19.25;4.18;;;11.20;99.90;;;;;;5051286;28;20605;-57
2022/11/10 08:42:03;;;;;;;32.05;7.47;;;;;;;;;;5050421;28;20036;-57
2022/11/10 08:44:28;;;;;;;16.95;4.55;;;11.30;99.90;;;;;;5051137;28;20037;-57
2022/11/10 08:46:54;;;;;;;20.02;4.85;;;11.30;99.90;;;;;;5050127;28;20086;-58
2022/11/10 08:49:20;;;;;;;19.77;4.68;;;;;;;;;;5051441;28;20265;-57
2022/11/10 08:51:46;;;;;;;23.38;5.22;;;;;;;;;;5051416;28;20120;-58
2022/11/10 08:54:12;;;;;;;21.42;5.65;;;11.50;99.90;;;;;;5051274;28;20121;-54
2022/11/10 08:56:37;;;;;;;17.55;5.15;;;11.60;99.90;;;;;;5051395;28;20469;-57
2022/11/10 08:59:03;;;;;;;23.05;5.13;;;11.60;99.90;;;;;;5032742;28;20398;-57
2022/11/10 09:01:29;;;;;;;17.30;4.70;;;;;;;;;;5049032;28;20037;-57
2022/11/10 09:03:55;;;;;;;22.13;4.72;;;;;;;;;;5051246;28;20068;-57
2022/11/10 09:06:21;;;;;;;23.60;7.15;;;11.50;99.90;;;;;;5050711;28;20055;-57
2022/11/10 09:08:46;;;;;;;19.65;4.30;;;11.60;99.90;;;;;;5050119;28;20546;-57
2022/11/10 09:11:12;;;;;;;24.40;5.10;;;11.70;99.90;;;;;;5050847;28;20186;-58
2022/11/10 09:13:38;;;;;;;23.05;5.10;;;;;;;;;;5034948;28;20490;-56
2022/11/10 09:16:04;;;;;;;20.55;4.88;;;;;;;;;;5061237;28;20037;-56
2022/11/10 09:18:31;;;;;;;16.67;4.35;;;;;;;;;;5031115;28;20041;-57
2022/11/10 09:20:57;;;;;;;22.27;5.65;;;11.70;99.90;;;;;;5050236;28;20033;-57
2022/11/10 09:23:23;;;;;;;18.15;5.05;;;;;;;;;;5049722;28;20383;-57
2022/11/10 09:25:51;;;;;;;21.70;5.15;;;;;;;;;;5053178;28;20037;-57
2022/11/10 09:28:17;;;;;;;19.25;6.82;;;11.80;99.90;;;;;;5036508;28;20505;-57
2022/11/10 09:30:47;;;;;;;27.77;6.85;;;;;;;;;;5050681;28;20041;-57
2022/11/10 09:33:13;;;;;;;19.52;5.72;;;11.80;99.90;;;;;;5056069;28;20036;-58
2022/11/10 09:35:39;;;;;;;22.73;5.68;;;11.70;99.90;;;;;;5051592;28;20112;-57
2022/11/10 09:38:05;;;;;;;26.05;6.40;;;12.30;99.90;;;;;;5050124;28;20402;-55
2022/11/10 09:40:51;;;;;;;19.85;5.30;;;11.90;99.90;;;;;;5050154;28;20262;-57
2022/11/10 09:43:29;;;;;;;18.65;5.65;;;12.10;99.90;;;;;;5050575;28;20040;-58
2022/11/10 09:45:58;;;;;;;20.98;5.07;;;12.00;99.90;;;;;;5043445;28;20033;-57
2022/11/10 09:48:28;;;;;;;18.52;5.57;;;11.80;99.90;;;;;;5032003;28;20063;-57
2022/11/10 09:50:59;;;;;;;21.48;5.43;;;;;;;;;;5042280;28;20456;-57
2022/11/10 09:53:45;;;;;;;20.38;6.10;;;;;;;;;;5050023;28;20033;-57
2022/11/10 09:56:13;;;;;;;23.75;7.72;;;;;;;;;;4983364;28;20488;-57
2022/11/10 09:58:43;;;;;;;17.35;6.03;;;;;;;;;;5047564;28;20071;-57
2022/11/10 10:01:15;;;;;;;19.77;6.68;;;11.60;99.90;;;;;;5048923;28;20098;-57
2022/11/10 10:03:46;;;;;;;24.40;6.65;;;;;;;;;;5049849;28;20076;-58
2022/11/10 10:06:13;;;;;;;17.48;5.80;;;;;;;;;;5048299;28;20124;-56
2022/11/10 10:09:08;;;;;;;20.33;6.25;;;12.80;99.90;;;;;;5047375;28;20052;-58
2022/11/10 10:11:45;;;;;;;22.13;7.25;;;12.70;99.90;;;;;;5008450;28;20041;-58
2022/11/10 10:14:23;;;;;;;21.83;6.57;;;;;;;;;;5048091;28;20037;-58
2022/11/10 10:17:04;;;;;;;27.67;6.72;;;12.20;99.90;;;;;;5049541;28;20032;-57
2022/11/10 10:20:08;;;;;;;19.05;5.20;;;12.50;99.90;;;;;;5046405;28;20041;-58
2022/11/10 10:22:42;;;;;;;15.45;6.55;;;;;;;;;;5032684;28;20413;-57
2022/11/10 10:25:14;;;;;;;21.30;5.30;;;;;;;;;;5049964;28;20044;-57
2022/11/10 10:27:40;;;;;;;26.58;5.85;;;;;;;;;;5047128;28;20375;-57
2022/11/10 10:30:17;;;;;;;22.30;5.20;;;;;;;;;;5049878;28;20065;-55
2022/11/10 10:32:43;;;;;;;31.65;6.00;;;12.00;99.90;;;;;;5048603;28;20049;-58
2022/11/10 10:35:16;;;;;;;21.42;6.40;;;;;;;;;;5052451;28;20076;-58
2022/11/10 10:37:52;;;;;;;16.30;5.38;;;12.40;99.90;;;;;;5051584;28;20041;-56
2022/11/10 10:40:20;;;;;;;17.13;4.88;;;12.50;99.90;;;;;;5053532;28;20060;-57
2022/11/10 10:42:47;;;;;;;17.63;5.43;;;;;;;;;;5053504;28;20045;-57
2022/11/10 10:45:20;;;;;;;18.23;5.60;;;;;;;;;;5053899;28;20069;-57
2022/11/10 10:47:48;;;;;;;26.80;7.10;;;;;;;;;;5054870;28;20041;-57
2022/11/10 10:50:34;;;;;;;16.77;5.85;;;;;;;;;;5053603;28;20041;-57
2022/11/10 10:53:03;;;;;;;21.15;5.55;;;;;;;;;;5035810;28;20045;-58
2022/11/10 10:55:29;;;;;;;15.20;6.72;;;12.40;99.90;;;;;;5053080;28;20037;-57
2022/11/10 10:58:00;;;;;;;16.70;6.13;;;;;;;;;;5052356;28;20076;-57
2022/11/10 11:00:26;;;;;;;22.98;6.82;;;11.80;99.90;;;;;;5049524;28;20398;-54
2022/11/10 11:03:03;;;;;;;13.43;6.13;;;12.70;99.90;;;;;;5052197;28;20115;-57
2022/11/10 11:05:28;;;;;;;18.00;8.27;;;12.30;99.90;;;;;;5049482;28;20037;-56
2022/11/10 11:07:55;;;;;;;18.15;5.85;;;;;;;;;;5047700;28;20055;-58
2022/11/10 11:10:21;;;;;;;20.90;6.50;;;12.30;99.90;;;;;;5033488;28;20449;-57
2022/11/10 11:12:46;;;;;;;24.73;8.07;;;12.40;99.90;;;;;;5052235;28;20098;-56
2022/11/10 11:15:20;;;;;;;32.60;8.00;;;;;;;;;;5052090;28;20080;-57
2022/11/10 11:18:01;;;;;;;22.10;7.13;;;12.70;99.90;;;;;;5051247;28;20048;-57
2022/11/10 11:20:48;;;;;;;19.75;6.90;;;;;;;;;;5050989;28;20041;-54
2022/11/10 11:23:25;;;;;;;15.32;6.63;;;12.20;99.90;;;;;;5039812;28;20056;-57
2022/11/10 11:25:58;;;;;;;15.63;6.05;;;12.40;99.90;;;;;;5017559;28;20488;-57
2022/11/10 11:28:56;;;;;;;23.73;6.50;;;12.40;99.90;;;;;;5034724;28;20036;-57
2022/11/10 11:31:31;;;;;;;19.95;5.63;;;;;;;;;;4998283;28;20522;-55
2022/11/10 11:34:39;;;;;;;22.00;6.65;;;12.60;99.90;;;;;;5049029;28;20037;-53
2022/11/10 11:37:11;;;;;;;25.17;8.05;;;;;;;;;;5007330;28;20053;-56
2022/11/10 11:39:48;;;;;;;23.20;6.85;;;;;;;;;;5052182;28;20550;-55
2022/11/10 11:42:23;;;;;;;16.45;5.35;;;12.00;99.90;;;;;;5034136;28;20268;-56
2022/11/10 11:45:13;;;;;;;21.45;6.03;;;12.80;99.90;;;;;;5050442;28;20041;-56
2022/11/10 11:47:59;;;;;;;23.42;6.25;;;12.40;99.90;;;;;;5051847;28;20080;-57
2022/11/10 11:50:50;;;;;;;21.55;6.00;;;;;;;;;;5047353;28;20049;-57
2022/11/10 11:53:16;;;;;;;23.25;5.72;;;;;;;;;;5055395;28;20116;-57
2022/11/10 11:55:53;;;;;;;20.92;5.95;;;;;;;;;;5062540;28;20059;-58
2022/11/10 11:58:22;;;;;;;23.10;6.35;;;;;;;;;;5047754;28;20387;-57
2022/11/10 12:01:02;;;;;;;15.40;5.45;;;12.40;99.90;;;;;;5053644;28;20041;-56
2022/11/10 12:04:04;;;;;;;17.25;5.35;;;;;;;;;;5051235;28;20095;-56
2022/11/10 12:06:57;;;;;;;18.55;5.20;;;12.10;99.90;;;;;;5051672;28;20040;-58
2022/11/10 12:09:51;;;;;;;15.07;5.07;;;12.10;99.90;;;;;;5050886;28;20037;-58
2022/11/10 12:12:19;;;;;;;15.30;5.25;;;12.80;99.90;;;;;;5046460;28;20479;-58
2022/11/10 12:14:53;;;;;;;22.38;4.97;;;;;;;;;;5033653;28;20045;-57
2022/11/10 12:17:47;;;;;;;20.05;5.60;;;12.90;99.90;;;;;;5050918;28;20095;-58
2022/11/10 12:20:22;;;;;;;17.40;5.55;;;;;;;;;;5043658;28;20041;-58
2022/11/10 12:22:59;;;;;;;15.88;4.88;;;;;;;;;;5051475;28;20060;-58
2022/11/10 12:25:28;;;;;;;22.38;5.97;;;;;;;;;;5033691;28;20395;-57
2022/11/10 12:28:23;;;;;;;19.60;4.97;;;12.60;99.90;;;;;;5051191;28;20036;-58
2022/11/10 12:30:51;;;;;;;18.20;5.28;;;;;;;;;;5051997;28;20420;-57
2022/11/10 12:33:20;;;;;;;17.50;4.72;;;;;;;;;;5060691;28;20025;-57
2022/11/10 12:35:47;;;;;;;20.38;6.32;;;12.70;99.90;;;;;;5052168;28;20230;-58
2022/11/10 12:38:26;;;;;;;16.05;4.93;;;12.90;99.90;;;;;;5051709;28;20037;-57
2022/11/10 12:40:57;;;;;;;19.30;5.82;;;12.70;99.90;;;;;;5033316;28;20079;-57
2022/11/10 12:43:38;;;;;;;13.63;5.22;;;;;;;;;;5047418;28;20032;-57
2022/11/10 12:46:07;;;;;;;18.92;5.25;;;;;;;;;;5056109;28;20032;-58
2022/11/10 12:48:56;;;;;;;18.67;6.47;;;12.50;99.90;;;;;;5059039;28;20037;-58
2022/11/10 12:51:25;;;;;;;19.17;4.85;;;12.90;99.90;;;;;;5123577;22;20048;-57
2022/11/10 12:53:51;;;;;;;23.00;5.78;;;12.60;99.90;;;;;;5051315;28;20029;-58
2022/11/10 12:56:28;;;;;;;16.15;4.25;;;12.90;99.90;;;;;;5050710;28;20122;-58
2022/11/10 12:59:13;;;;;;;21.05;5.35;;;;;;;;;;5058061;28;20041;-58
2022/11/10 13:01:50;;;;;;;20.00;6.47;;;12.70;99.90;;;;;;5054377;28;20494;-59
2022/11/10 13:04:17;;;;;;;24.58;5.65;;;12.80;99.90;;;;;;5051068;28;20486;-58
2022/11/10 13:07:04;;;;;;;19.77;4.93;;;12.70;99.90;;;;;;5048125;28;20435;-59
2022/11/10 13:09:35;;;;;;;17.35;5.25;;;12.70;99.90;;;;;;5059561;28;20044;-58
2022/11/10 13:12:17;;;;;;;17.52;5.55;;;12.60;99.90;;;;;;5061420;28;20051;-58
2022/11/10 13:14:44;;;;;;;27.02;5.18;;;12.80;99.90;;;;;;5050887;28;20533;-59
2022/11/10 13:17:25;;;;;;;18.38;4.80;;;13.00;99.90;;;;;;5059585;28;20036;-58
2022/11/10 13:19:52;;;;;;;18.52;4.80;;;12.90;99.90;;;;;;5058822;28;20498;-59
2022/11/10 13:22:29;;;;;;;18.35;5.30;;;12.70;99.90;;;;;;5050173;28;20040;-58
2022/11/10 13:25:14;;;;;;;20.92;4.93;;;;;;;;;;5042820;28;20037;-59
2022/11/10 13:27:46;;;;;;;24.40;5.70;;;;;;;;;;5048626;28;20033;-58
2022/11/10 13:30:40;;;;;;;19.35;5.28;;;13.10;99.90;;;;;;5056587;28;20043;-59
2022/11/10 13:33:24;;;;;;;17.67;4.50;;;13.20;99.90;;;;;;5044192;28;20033;-59
2022/11/10 13:35:54;;;;;;;19.93;6.03;;;;;;;;;;5049670;28;20037;-58
2022/11/10 13:38:41;;;;;;;18.88;4.85;;;13.20;99.90;;;;;;5043710;28;20059;-57